Disclaimer

Please do not use the information listed here in-flight or in-navigation, as they are not provided to us by the airports but are provided by volunteers, so they might be outdated.

Search


Regions


Airport information page

Radio informations:
OSORNO TWR - 118.9 MHz

Airport informations:
Latitude: 40° 36' 40.35" S
Longitude: 073° 03' 39.75" W
Elevation: 187 feet - 57 meters
Operating hours: Remarks
Operating agency: Civil government, landing fees and diplomatic clearance may be required
Timezone: UTC-4(-3DT)
Fuel: N/A

Runway information:
13/31 - 5578 x 118 feet< - >1700 x 36 meters

Recent METARs:
SCJO 211200Z 01014KT 6000 RA FEW010 OVC035 15/14 Q1006

Airport on the map: